sensor_id;sensor_type;location;lat;lon;timestamp;pressure;altitude;pressure_sealevel;temperature;humidity
12759;BME280;20944;47.048;15.390;2022-11-11T00:01:00;99195.41;;;4.38;100.00
12759;BME280;20944;47.048;15.390;2022-11-11T00:03:29;99147.78;;;3.96;100.00
12759;BME280;20944;47.048;15.390;2022-11-11T00:06:05;99201.16;;;4.24;100.00
12759;BME280;20944;47.048;15.390;2022-11-11T00:08:34;99198.69;;;4.29;100.00
12759;BME280;20944;47.048;15.390;2022-11-11T00:11:04;99203.56;;;4.15;100.00
12759;BME280;20944;47.048;15.390;2022-11-11T00:13:33;99199.81;;;4.02;100.00
12759;BME280;20944;47.048;15.390;2022-11-11T00:16:05;99169.97;;;3.84;100.00
12759;BME280;20944;47.048;15.390;2022-11-11T00:18:34;99201.28;;;3.93;100.00
12759;BME280;20944;47.048;15.390;2022-11-11T00:21:21;99169.81;;;3.77;100.00
12759;BME280;20944;47.048;15.390;2022-11-11T00:24:19;99197.72;;;3.89;100.00
12759;BME280;20944;47.048;15.390;2022-11-11T00:27:06;99088.16;;;3.24;100.00
12759;BME280;20944;47.048;15.390;2022-11-11T00:29:34;99190.69;;;3.84;100.00
12759;BME280;20944;47.048;15.390;2022-11-11T00:32:03;99177.53;;;3.76;100.00
12759;BME280;20944;47.048;15.390;2022-11-11T00:34:51;99212.66;;;3.98;100.00
12759;BME280;20944;47.048;15.390;2022-11-11T00:37:39;99184.03;;;3.95;100.00
12759;BME280;20944;47.048;15.390;2022-11-11T00:40:09;99206.00;;;4.09;100.00
12759;BME280;20944;47.048;15.390;2022-11-11T00:42:38;99199.19;;;4.14;100.00
12759;BME280;20944;47.048;15.390;2022-11-11T00:45:08;99178.84;;;3.95;100.00
12759;BME280;20944;47.048;15.390;2022-11-11T00:47:36;99198.94;;;4.03;100.00
12759;BME280;20944;47.048;15.390;2022-11-11T00:50:24;99187.50;;;3.95;100.00
12759;BME280;20944;47.048;15.390;2022-11-11T00:53:12;99187.34;;;3.89;100.00
12759;BME280;20944;47.048;15.390;2022-11-11T00:55:41;99181.59;;;4.01;100.00
12759;BME280;20944;47.048;15.390;2022-11-11T00:58:10;99179.66;;;3.92;100.00
12759;BME280;20944;47.048;15.390;2022-11-11T01:00:38;99122.50;;;3.51;100.00
12759;BME280;20944;47.048;15.390;2022-11-11T01:03:06;99178.66;;;3.86;100.00
12759;BME280;20944;47.048;15.390;2022-11-11T01:05:36;99170.84;;;3.84;100.00
12759;BME280;20944;47.048;15.390;2022-11-11T01:08:04;99169.97;;;3.84;100.00
12759;BME280;20944;47.048;15.390;2022-11-11T01:10:35;99105.03;;;3.43;100.00
12759;BME280;20944;47.048;15.390;2022-11-11T01:13:16;99178.50;;;3.79;100.00
12759;BME280;20944;47.048;15.390;2022-11-11T01:15:46;99151.28;;;3.62;100.00
12759;BME280;20944;47.048;15.390;2022-11-11T01:18:17;99135.28;;;3.44;100.00
12759;BME280;20944;47.048;15.390;2022-11-11T01:20:46;99159.19;;;3.67;100.00
12759;BME280;20944;47.048;15.390;2022-11-11T01:23:15;99088.34;;;3.32;100.00
12759;BME280;20944;47.048;15.390;2022-11-11T01:25:45;98769.75;;;1.45;100.00
12759;BME280;20944;47.048;15.390;2022-11-11T01:28:13;99028.88;;;3.02;100.00
12759;BME280;20944;47.048;15.390;2022-11-11T01:30:42;99153.88;;;3.62;100.00
12759;BME280;20944;47.048;15.390;2022-11-11T01:33:10;99134.59;;;3.51;100.00
12759;BME280;20944;47.048;15.390;2022-11-11T01:35:40;99135.59;;;3.58;100.00
12759;BME280;20944;47.048;15.390;2022-11-11T01:38:09;99136.56;;;3.61;100.00
12759;BME280;20944;47.048;15.390;2022-11-11T01:40:41;99132.13;;;3.56;100.00
12759;BME280;20944;47.048;15.390;2022-11-11T01:43:22;99134.81;;;3.60;100.00
12759;BME280;20944;47.048;15.390;2022-11-11T01:45:54;99128.69;;;3.57;100.00
12759;BME280;20944;47.048;15.390;2022-11-11T01:48:28;99142.41;;;3.53;100.00
12759;BME280;20944;47.048;15.390;2022-11-11T01:51:20;99142.19;;;3.43;100.00
12759;BME280;20944;47.048;15.390;2022-11-11T01:53:54;99156.09;;;3.47;100.00
12759;BME280;20944;47.048;15.390;2022-11-11T01:56:24;99143.75;;;3.37;100.00
12759;BME280;20944;47.048;15.390;2022-11-11T01:58:56;99154.72;;;3.61;100.00
12759;BME280;20944;47.048;15.390;2022-11-11T02:01:25;99155.63;;;3.63;100.00
12759;BME280;20944;47.048;15.390;2022-11-11T02:03:55;99156.25;;;3.53;100.00
12759;BME280;20944;47.048;15.390;2022-11-11T02:06:41;99144.03;;;3.49;100.00
12759;BME280;20944;47.048;15.390;2022-11-11T02:09:10;99196.41;;;3.36;100.00
12759;BME280;20944;47.048;15.390;2022-11-11T02:11:39;99154.03;;;3.34;100.00
12759;BME280;20944;47.048;15.390;2022-11-11T02:14:34;98998.19;;;2.48;100.00
12759;BME280;20944;47.048;15.390;2022-11-11T02:17:08;99156.31;;;3.56;100.00
12759;BME280;20944;47.048;15.390;2022-11-11T02:19:44;99150.44;;;3.63;100.00
12759;BME280;20944;47.048;15.390;2022-11-11T02:22:18;99151.09;;;3.55;100.00
12759;BME280;20944;47.048;15.390;2022-11-11T02:24:53;99074.53;;;2.96;100.00
12759;BME280;20944;47.048;15.390;2022-11-11T02:27:22;99136.22;;;3.46;100.00
12759;BME280;20944;47.048;15.390;2022-11-11T02:29:53;99158.72;;;3.48;100.00
12759;BME280;20944;47.048;15.390;2022-11-11T02:32:23;99156.34;;;3.58;100.00
12759;BME280;20944;47.048;15.390;2022-11-11T02:34:51;99159.69;;;3.52;100.00
12759;BME280;20944;47.048;15.390;2022-11-11T02:37:22;99161.28;;;3.47;100.00
12759;BME280;20944;47.048;15.390;2022-11-11T02:39:57;99135.09;;;3.36;100.00
12759;BME280;20944;47.048;15.390;2022-11-11T02:42:33;99155.41;;;3.54;100.00
12759;BME280;20944;47.048;15.390;2022-11-11T02:45:02;99155.56;;;3.60;100.00
12759;BME280;20944;47.048;15.390;2022-11-11T02:47:30;99153.41;;;3.44;100.00
12759;BME280;20944;47.048;15.390;2022-11-11T02:49:58;99132.06;;;3.19;100.00
12759;BME280;20944;47.048;15.390;2022-11-11T02:52:27;99161.50;;;3.21;100.00
12759;BME280;20944;47.048;15.390;2022-11-11T02:54:57;99160.47;;;3.15;100.00
12759;BME280;20944;47.048;15.390;2022-11-11T02:57:25;99174.47;;;3.23;100.00
12759;BME280;20944;47.048;15.390;2022-11-11T02:59:56;99170.28;;;3.28;100.00
12759;BME280;20944;47.048;15.390;2022-11-11T03:02:25;99167.59;;;3.23;100.00
12759;BME280;20944;47.048;15.390;2022-11-11T03:04:55;99169.97;;;3.16;100.00
12759;BME280;20944;47.048;15.390;2022-11-11T03:07:24;99174.22;;;3.14;100.00
12759;BME280;20944;47.048;15.390;2022-11-11T03:09:53;99160.91;;;3.00;100.00
12759;BME280;20944;47.048;15.390;2022-11-11T03:12:22;99187.09;;;3.11;100.00
12759;BME280;20944;47.048;15.390;2022-11-11T03:14:51;99180.38;;;3.17;100.00
12759;BME280;20944;47.048;15.390;2022-11-11T03:17:20;99183.00;;;3.19;100.00
12759;BME280;20944;47.048;15.390;2022-11-11T03:20:08;99146.88;;;2.92;100.00
12759;BME280;20944;47.048;15.390;2022-11-11T03:23:02;99173.66;;;3.25;100.00
12759;BME280;20944;47.048;15.390;2022-11-11T03:25:31;99178.84;;;3.25;100.00
12759;BME280;20944;47.048;15.390;2022-11-11T03:28:07;99124.50;;;2.94;100.00
12759;BME280;20944;47.048;15.390;2022-11-11T03:30:36;99170.88;;;3.18;100.00
12759;BME280;20944;47.048;15.390;2022-11-11T03:33:05;99173.41;;;3.15;100.00
12759;BME280;20944;47.048;15.390;2022-11-11T03:35:34;99159.16;;;2.99;100.00
12759;BME280;20944;47.048;15.390;2022-11-11T03:38:04;99174.88;;;3.07;100.00
12759;BME280;20944;47.048;15.390;2022-11-11T03:40:58;99180.13;;;3.08;100.00
12759;BME280;20944;47.048;15.390;2022-11-11T03:43:30;99183.50;;;3.06;100.00
12759;BME280;20944;47.048;15.390;2022-11-11T03:45:59;99166.78;;;2.94;100.00
12759;BME280;20944;47.048;15.390;2022-11-11T03:48:30;99179.28;;;3.09;100.00
12759;BME280;20944;47.048;15.390;2022-11-11T03:50:59;99065.94;;;2.34;100.00
12759;BME280;20944;47.048;15.390;2022-11-11T03:53:27;99185.47;;;3.14;100.00
12759;BME280;20944;47.048;15.390;2022-11-11T03:55:55;99170.53;;;3.04;100.00
12759;BME280;20944;47.048;15.390;2022-11-11T03:58:23;99194.47;;;3.29;100.00
12759;BME280;20944;47.048;15.390;2022-11-11T04:00:54;99177.34;;;3.34;100.00
12759;BME280;20944;47.048;15.390;2022-11-11T04:03:22;99188.63;;;3.36;100.00
12759;BME280;20944;47.048;15.390;2022-11-11T04:06:08;99202.75;;;3.15;100.00
12759;BME280;20944;47.048;15.390;2022-11-11T04:08:54;99177.31;;;3.01;100.00
12759;BME280;20944;47.048;15.390;2022-11-11T04:11:41;99188.09;;;3.16;100.00
12759;BME280;20944;47.048;15.390;2022-11-11T04:14:12;99150.50;;;2.98;100.00
12759;BME280;20944;47.048;15.390;2022-11-11T04:16:59;99190.56;;;3.11;100.00
12759;BME280;20944;47.048;15.390;2022-11-11T04:19:27;99148.00;;;2.70;100.00
12759;BME280;20944;47.048;15.390;2022-11-11T04:22:13;99174.63;;;2.96;100.00
12759;BME280;20944;47.048;15.390;2022-11-11T04:24:41;99191.41;;;3.10;100.00
12759;BME280;20944;47.048;15.390;2022-11-11T04:27:27;99197.97;;;2.97;100.00
12759;BME280;20944;47.048;15.390;2022-11-11T04:29:55;99200.38;;;2.91;100.00
12759;BME280;20944;47.048;15.390;2022-11-11T04:32:24;99195.22;;;2.93;100.00
12759;BME280;20944;47.048;15.390;2022-11-11T04:35:07;99193.38;;;2.89;100.00
12759;BME280;20944;47.048;15.390;2022-11-11T04:37:43;99201.81;;;2.82;100.00
12759;BME280;20944;47.048;15.390;2022-11-11T04:40:12;99055.44;;;1.98;100.00
12759;BME280;20944;47.048;15.390;2022-11-11T04:42:57;99142.19;;;2.47;100.00
12759;BME280;20944;47.048;15.390;2022-11-11T04:45:25;99202.25;;;2.97;100.00
12759;BME280;20944;47.048;15.390;2022-11-11T04:48:00;99209.22;;;3.00;100.00
12759;BME280;20944;47.048;15.390;2022-11-11T04:50:30;99211.75;;;2.96;100.00
12759;BME280;20944;47.048;15.390;2022-11-11T04:52:59;99193.22;;;2.83;100.00
12759;BME280;20944;47.048;15.390;2022-11-11T04:55:29;99213.44;;;2.96;100.00
12759;BME280;20944;47.048;15.390;2022-11-11T04:58:15;99219.56;;;3.00;100.00
12759;BME280;20944;47.048;15.390;2022-11-11T05:00:44;99220.06;;;3.16;100.00
12759;BME280;20944;47.048;15.390;2022-11-11T05:03:14;99213.72;;;3.07;100.00
12759;BME280;20944;47.048;15.390;2022-11-11T05:05:42;99073.16;;;2.14;100.00
12759;BME280;20944;47.048;15.390;2022-11-11T05:08:28;99210.88;;;2.96;100.00
12759;BME280;20944;47.048;15.390;2022-11-11T05:11:14;99212.72;;;3.02;100.00
12759;BME280;20944;47.048;15.390;2022-11-11T05:13:43;99224.97;;;3.07;100.00
12759;BME280;20944;47.048;15.390;2022-11-11T05:16:31;99212.63;;;2.97;100.00
12759;BME280;20944;47.048;15.390;2022-11-11T05:19:19;99221.13;;;2.93;100.00
12759;BME280;20944;47.048;15.390;2022-11-11T05:22:09;99192.47;;;2.87;100.00
12759;BME280;20944;47.048;15.390;2022-11-11T05:24:39;99203.16;;;2.99;100.00
12759;BME280;20944;47.048;15.390;2022-11-11T05:27:25;99227.47;;;3.04;100.00
12759;BME280;20944;47.048;15.390;2022-11-11T05:29:54;99222.09;;;2.96;100.00
12759;BME280;20944;47.048;15.390;2022-11-11T05:32:23;99202.78;;;2.85;100.00
12759;BME280;20944;47.048;15.390;2022-11-11T05:34:53;99230.59;;;2.92;100.00
12759;BME280;20944;47.048;15.390;2022-11-11T05:37:21;99197.25;;;2.73;100.00
12759;BME280;20944;47.048;15.390;2022-11-11T05:39:49;99233.31;;;2.97;100.00
12759;BME280;20944;47.048;15.390;2022-11-11T05:42:18;99239.09;;;2.88;100.00
12759;BME280;20944;47.048;15.390;2022-11-11T05:44:46;99246.47;;;3.05;100.00
12759;BME280;20944;47.048;15.390;2022-11-11T05:47:15;99070.91;;;1.97;100.00
12759;BME280;20944;47.048;15.390;2022-11-11T05:49:43;99260.44;;;3.10;100.00
12759;BME280;20944;47.048;15.390;2022-11-11T05:52:14;99263.81;;;3.07;100.00
12759;BME280;20944;47.048;15.390;2022-11-11T05:54:43;99265.47;;;3.05;100.00
12759;BME280;20944;47.048;15.390;2022-11-11T05:57:12;99268.81;;;3.01;100.00
12759;BME280;20944;47.048;15.390;2022-11-11T05:59:40;99259.72;;;2.85;100.00
12759;BME280;20944;47.048;15.390;2022-11-11T06:02:09;99277.25;;;2.94;100.00
12759;BME280;20944;47.048;15.390;2022-11-11T06:04:38;99285.59;;;2.84;100.00
12759;BME280;20944;47.048;15.390;2022-11-11T06:07:06;99284.56;;;2.79;100.00
12759;BME280;20944;47.048;15.390;2022-11-11T06:09:36;99239.72;;;2.51;100.00
12759;BME280;20944;47.048;15.390;2022-11-11T06:12:04;99285.34;;;2.76;100.00
12759;BME280;20944;47.048;15.390;2022-11-11T06:14:32;99289.03;;;2.84;100.00
12759;BME280;20944;47.048;15.390;2022-11-11T06:17:01;99287.56;;;2.92;100.00
12759;BME280;20944;47.048;15.390;2022-11-11T06:19:29;99287.72;;;2.98;100.00
12759;BME280;20944;47.048;15.390;2022-11-11T06:21:57;99295.75;;;3.08;100.00
12759;BME280;20944;47.048;15.390;2022-11-11T06:24:27;99301.03;;;3.11;100.00
12759;BME280;20944;47.048;15.390;2022-11-11T06:26:57;99297.94;;;3.22;100.00
12759;BME280;20944;47.048;15.390;2022-11-11T06:29:24;99294.91;;;3.39;100.00
12759;BME280;20944;47.048;15.390;2022-11-11T06:31:52;99283.47;;;3.31;100.00
12759;BME280;20944;47.048;15.390;2022-11-11T06:34:20;99212.34;;;2.88;100.00
12759;BME280;20944;47.048;15.390;2022-11-11T06:36:49;99302.47;;;3.63;100.00
12759;BME280;20944;47.048;15.390;2022-11-11T06:39:17;99299.16;;;3.67;100.00
12759;BME280;20944;47.048;15.390;2022-11-11T06:41:45;99286.03;;;3.61;100.00
12759;BME280;20944;47.048;15.390;2022-11-11T06:44:15;99297.88;;;3.84;100.00
12759;BME280;20944;47.048;15.390;2022-11-11T06:46:43;99294.44;;;3.85;100.00
12759;BME280;20944;47.048;15.390;2022-11-11T06:49:12;99286.72;;;3.88;100.00
12759;BME280;20944;47.048;15.390;2022-11-11T06:51:40;99294.69;;;3.96;100.00
12759;BME280;20944;47.048;15.390;2022-11-11T06:54:08;99250.28;;;3.82;100.00
12759;BME280;20944;47.048;15.390;2022-11-11T06:56:36;99296.84;;;4.12;100.00
12759;BME280;20944;47.048;15.390;2022-11-11T06:59:04;99268.69;;;3.93;100.00
12759;BME280;20944;47.048;15.390;2022-11-11T07:01:34;99308.19;;;4.16;100.00
12759;BME280;20944;47.048;15.390;2022-11-11T07:04:02;99258.47;;;3.99;100.00
12759;BME280;20944;47.048;15.390;2022-11-11T07:06:31;99288.25;;;4.15;100.00
12759;BME280;20944;47.048;15.390;2022-11-11T07:08:59;99297.09;;;4.21;100.00
12759;BME280;20944;47.048;15.390;2022-11-11T07:11:28;99290.41;;;4.32;100.00
12759;BME280;20944;47.048;15.390;2022-11-11T07:13:56;99319.38;;;4.49;100.00
12759;BME280;20944;47.048;15.390;2022-11-11T07:16:24;99324.50;;;4.46;100.00
12759;BME280;20944;47.048;15.390;2022-11-11T07:18:54;99268.16;;;4.06;100.00
12759;BME280;20944;47.048;15.390;2022-11-11T07:21:22;99324.38;;;4.40;100.00
12759;BME280;20944;47.048;15.390;2022-11-11T07:23:50;99268.50;;;4.20;100.00
12759;BME280;20944;47.048;15.390;2022-11-11T07:26:19;99314.16;;;4.48;100.00
12759;BME280;20944;47.048;15.390;2022-11-11T07:28:47;99315.19;;;4.54;100.00
12759;BME280;20944;47.048;15.390;2022-11-11T07:31:17;99310.44;;;4.38;100.00
12759;BME280;20944;47.048;15.390;2022-11-11T07:33:45;99277.94;;;4.16;100.00
12759;BME280;20944;47.048;15.390;2022-11-11T07:36:15;99307.75;;;4.33;100.00
12759;BME280;20944;47.048;15.390;2022-11-11T07:38:43;99209.75;;;3.86;100.00
12759;BME280;20944;47.048;15.390;2022-11-11T07:41:11;99282.56;;;4.29;100.00
12759;BME280;20944;47.048;15.390;2022-11-11T07:43:39;99323.81;;;4.53;100.00
12759;BME280;20944;47.048;15.390;2022-11-11T07:46:08;99312.75;;;4.62;100.00
12759;BME280;20944;47.048;15.390;2022-11-11T07:48:36;99309.59;;;4.75;100.00
12759;BME280;20944;47.048;15.390;2022-11-11T07:51:05;99298.59;;;4.87;100.00
12759;BME280;20944;47.048;15.390;2022-11-11T07:53:34;99316.47;;;5.12;100.00
12759;BME280;20944;47.048;15.390;2022-11-11T07:56:03;99320.31;;;5.30;100.00
12759;BME280;20944;47.048;15.390;2022-11-11T07:58:31;99304.00;;;5.38;100.00
12759;BME280;20944;47.048;15.390;2022-11-11T08:00:59;99290.09;;;5.35;100.00
12759;BME280;20944;47.048;15.390;2022-11-11T08:03:34;99298.88;;;5.41;100.00
12759;BME280;20944;47.048;15.390;2022-11-11T08:06:16;99303.91;;;5.34;100.00
12759;BME280;20944;47.048;15.390;2022-11-11T08:08:46;99304.81;;;5.34;100.00
12759;BME280;20944;47.048;15.390;2022-11-11T08:11:16;99334.53;;;5.47;100.00
12759;BME280;20944;47.048;15.390;2022-11-11T08:14:04;99339.03;;;5.56;100.00
12759;BME280;20944;47.048;15.390;2022-11-11T08:16:31;99346.19;;;5.67;100.00
12759;BME280;20944;47.048;15.390;2022-11-11T08:19:00;99337.00;;;5.86;100.00
12759;BME280;20944;47.048;15.390;2022-11-11T08:21:28;99333.97;;;6.09;100.00
12759;BME280;20944;47.048;15.390;2022-11-11T08:23:58;99284.53;;;6.09;100.00
12759;BME280;20944;47.048;15.390;2022-11-11T08:26:46;99332.16;;;6.55;100.00
12759;BME280;20944;47.048;15.390;2022-11-11T08:29:15;99312.00;;;6.41;100.00
12759;BME280;20944;47.048;15.390;2022-11-11T08:31:43;99336.50;;;6.56;100.00
12759;BME280;20944;47.048;15.390;2022-11-11T08:34:12;99322.56;;;6.54;100.00
12759;BME280;20944;47.048;15.390;2022-11-11T08:36:40;99332.41;;;6.71;100.00
12759;BME280;20944;47.048;15.390;2022-11-11T08:39:10;99336.81;;;6.77;100.00
12759;BME280;20944;47.048;15.390;2022-11-11T08:41:38;99325.69;;;6.86;100.00
12759;BME280;20944;47.048;15.390;2022-11-11T08:44:08;99262.75;;;6.60;100.00
12759;BME280;20944;47.048;15.390;2022-11-11T08:46:36;99337.28;;;7.08;100.00
12759;BME280;20944;47.048;15.390;2022-11-11T08:49:04;99339.09;;;7.15;100.00
12759;BME280;20944;47.048;15.390;2022-11-11T08:51:32;99334.91;;;7.26;100.00
12759;BME280;20944;47.048;15.390;2022-11-11T08:54:11;99335.88;;;7.34;100.00
12759;BME280;20944;47.048;15.390;2022-11-11T08:56:39;99331.63;;;7.41;100.00
12759;BME280;20944;47.048;15.390;2022-11-11T08:59:09;99321.22;;;7.42;100.00
12759;BME280;20944;47.048;15.390;2022-11-11T09:01:37;99332.69;;;7.56;100.00
12759;BME280;20944;47.048;15.390;2022-11-11T09:04:06;99344.16;;;7.72;100.00
12759;BME280;20944;47.048;15.390;2022-11-11T09:06:54;99351.25;;;7.82;100.00
12759;BME280;20944;47.048;15.390;2022-11-11T09:09:24;99343.44;;;7.84;100.00
12759;BME280;20944;47.048;15.390;2022-11-11T09:11:52;99345.22;;;7.88;100.00
12759;BME280;20944;47.048;15.390;2022-11-11T09:14:20;99331.19;;;7.78;100.00
12759;BME280;20944;47.048;15.390;2022-11-11T09:16:49;99331.28;;;7.86;100.00
12759;BME280;20944;47.048;15.390;2022-11-11T09:19:17;99337.31;;;7.82;100.00
12759;BME280;20944;47.048;15.390;2022-11-11T09:21:46;99342.63;;;7.88;100.00
12759;BME280;20944;47.048;15.390;2022-11-11T09:24:14;99327.63;;;7.72;100.00
12759;BME280;20944;47.048;15.390;2022-11-11T09:26:46;99347.50;;;7.59;100.00
12759;BME280;20944;47.048;15.390;2022-11-11T09:29:14;99350.31;;;7.77;100.00
12759;BME280;20944;47.048;15.390;2022-11-11T09:31:43;99340.78;;;7.79;100.00
12759;BME280;20944;47.048;15.390;2022-11-11T09:34:12;99339.13;;;7.88;100.00
12759;BME280;20944;47.048;15.390;2022-11-11T09:36:41;99331.28;;;7.86;100.00
12759;BME280;20944;47.048;15.390;2022-11-11T09:39:09;99349.72;;;8.04;100.00
12759;BME280;20944;47.048;15.390;2022-11-11T09:41:49;99257.13;;;7.63;100.00
12759;BME280;20944;47.048;15.390;2022-11-11T09:44:39;99325.47;;;8.15;100.00
12759;BME280;20944;47.048;15.390;2022-11-11T09:47:15;99356.31;;;8.51;100.00
12759;BME280;20944;47.048;15.390;2022-11-11T09:49:54;99359.94;;;8.70;100.00
12759;BME280;20944;47.048;15.390;2022-11-11T09:52:28;99364.34;;;8.74;100.00
12759;BME280;20944;47.048;15.390;2022-11-11T09:55:00;99346.09;;;8.81;100.00
12759;BME280;20944;47.048;15.390;2022-11-11T09:57:35;99349.66;;;8.97;100.00
12759;BME280;20944;47.048;15.390;2022-11-11T10:00:09;99350.59;;;9.02;100.00
12759;BME280;20944;47.048;15.390;2022-11-11T10:02:51;99356.78;;;9.18;100.00
12759;BME280;20944;47.048;15.390;2022-11-11T10:05:24;99344.56;;;9.17;100.00
12759;BME280;20944;47.048;15.390;2022-11-11T10:07:57;99348.97;;;9.29;100.00
12759;BME280;20944;47.048;15.390;2022-11-11T10:10:33;99342.91;;;9.36;100.00
12759;BME280;20944;47.048;15.390;2022-11-11T10:13:11;99345.59;;;9.43;100.00
12759;BME280;20944;47.048;15.390;2022-11-11T10:15:49;99345.56;;;9.40;100.00
12759;BME280;20944;47.048;15.390;2022-11-11T10:18:38;99335.97;;;9.41;100.00
12759;BME280;20944;47.048;15.390;2022-11-11T10:21:13;99330.75;;;9.49;100.00
12759;BME280;20944;47.048;15.390;2022-11-11T10:23:45;99343.03;;;9.59;100.00
12759;BME280;20944;47.048;15.390;2022-11-11T10:26:17;99346.56;;;9.68;100.00
12759;BME280;20944;47.048;15.390;2022-11-11T10:28:49;99329.06;;;9.58;100.00
12759;BME280;20944;47.048;15.390;2022-11-11T10:31:21;99344.81;;;9.73;100.00
12759;BME280;20944;47.048;15.390;2022-11-11T10:33:52;99350.94;;;9.76;100.00
12759;BME280;20944;47.048;15.390;2022-11-11T10:36:23;99354.47;;;9.87;100.00
12759;BME280;20944;47.048;15.390;2022-11-11T10:39:03;99330.91;;;9.82;100.00
12759;BME280;20944;47.048;15.390;2022-11-11T10:41:35;99319.53;;;9.76;100.00
12759;BME280;20944;47.048;15.390;2022-11-11T10:44:19;99347.50;;;9.96;100.00
12759;BME280;20944;47.048;15.390;2022-11-11T10:47:02;99271.47;;;9.51;100.00
12759;BME280;20944;47.048;15.390;2022-11-11T10:49:34;99329.19;;;9.99;100.00
12759;BME280;20944;47.048;15.390;2022-11-11T10:52:08;99330.91;;;9.88;100.00
12759;BME280;20944;47.048;15.390;2022-11-11T10:54:40;99327.41;;;9.85;100.00
12759;BME280;20944;47.048;15.390;2022-11-11T10:57:13;99150.94;;;8.85;100.00
12759;BME280;20944;47.048;15.390;2022-11-11T10:59:49;99311.69;;;9.83;100.00
12759;BME280;20944;47.048;15.390;2022-11-11T11:02:22;99332.66;;;9.97;100.00
12759;BME280;20944;47.048;15.390;2022-11-11T11:04:55;99310.84;;;9.96;100.00
12759;BME280;20944;47.048;15.390;2022-11-11T11:07:36;99321.34;;;10.16;100.00
12759;BME280;20944;47.048;15.390;2022-11-11T11:10:13;99214.78;;;9.65;100.00
12759;BME280;20944;47.048;15.390;2022-11-11T11:12:48;99260.22;;;9.87;100.00
12759;BME280;20944;47.048;15.390;2022-11-11T11:15:21;99326.63;;;10.24;100.00
12759;BME280;20944;47.048;15.390;2022-11-11T11:17:53;99338.00;;;10.27;100.00
12759;BME280;20944;47.048;15.390;2022-11-11T11:20:23;99331.84;;;10.24;100.00
12759;BME280;20944;47.048;15.390;2022-11-11T11:22:53;99321.38;;;10.30;100.00
12759;BME280;20944;47.048;15.390;2022-11-11T11:25:26;99306.56;;;10.27;100.00
12759;BME280;20944;47.048;15.390;2022-11-11T11:28:06;99254.97;;;9.93;100.00
12759;BME280;20944;47.048;15.390;2022-11-11T11:30:36;99308.25;;;10.16;100.00
12759;BME280;20944;47.048;15.390;2022-11-11T11:33:06;99262.84;;;9.94;100.00
12759;BME280;20944;47.048;15.390;2022-11-11T11:35:36;99296.88;;;10.17;100.00
12759;BME280;20944;47.048;15.390;2022-11-11T11:38:06;99290.78;;;10.15;100.00
12759;BME280;20944;47.048;15.390;2022-11-11T11:40:52;99292.53;;;10.16;100.00
12759;BME280;20944;47.048;15.390;2022-11-11T11:43:30;99288.16;;;10.09;100.00
12759;BME280;20944;47.048;15.390;2022-11-11T11:46:02;99295.19;;;10.24;100.00
12759;BME280;20944;47.048;15.390;2022-11-11T11:48:53;99270.75;;;10.31;100.00
12759;BME280;20944;47.048;15.390;2022-11-11T11:51:31;99288.22;;;10.38;100.00
12759;BME280;20944;47.048;15.390;2022-11-11T11:54:10;99247.13;;;10.08;100.00
12759;BME280;20944;47.048;15.390;2022-11-11T11:56:43;99298.69;;;10.35;100.00
12759;BME280;20944;47.048;15.390;2022-11-11T11:59:17;99275.09;;;10.27;100.00
12759;BME280;20944;47.048;15.390;2022-11-11T12:01:57;99293.44;;;10.47;100.00
12759;BME280;20944;47.048;15.390;2022-11-11T12:04:51;99271.59;;;10.58;100.00
12759;BME280;20944;47.048;15.390;2022-11-11T12:07:37;99284.63;;;10.93;100.00
12759;BME280;20944;47.048;15.390;2022-11-11T12:10:22;99277.56;;;11.22;100.00
12759;BME280;20944;47.048;15.390;2022-11-11T12:12:58;99266.94;;;11.50;100.00
12759;BME280;20944;47.048;15.390;2022-11-11T12:15:32;99271.16;;;11.84;100.00
12759;BME280;20944;47.048;15.390;2022-11-11T12:18:34;99259.56;;;12.13;100.00
12759;BME280;20944;47.048;15.390;2022-11-11T12:21:10;99260.25;;;12.36;100.00
12759;BME280;20944;47.048;15.390;2022-11-11T12:24:02;99261.75;;;12.62;100.00
12759;BME280;20944;47.048;15.390;2022-11-11T12:26:37;99253.72;;;12.76;100.00
12759;BME280;20944;47.048;15.390;2022-11-11T12:29:21;99264.06;;;12.94;100.00
12759;BME280;20944;47.048;15.390;2022-11-11T12:32:01;99261.38;;;13.00;100.00
12759;BME280;20944;47.048;15.390;2022-11-11T12:34:48;99257.72;;;13.12;100.00
12759;BME280;20944;47.048;15.390;2022-11-11T12:37:32;99247.00;;;13.30;100.00
12759;BME280;20944;47.048;15.390;2022-11-11T12:40:18;99231.28;;;13.27;100.00
12759;BME280;20944;47.048;15.390;2022-11-11T12:42:57;99229.50;;;13.28;100.00
12759;BME280;20944;47.048;15.390;2022-11-11T12:45:35;99224.38;;;13.12;100.00
12759;BME280;20944;47.048;15.390;2022-11-11T12:51:03;99211.25;;;13.11;100.00
12759;BME280;20944;47.048;15.390;2022-11-11T12:53:48;99229.66;;;13.14;100.00
12759;BME280;20944;47.048;15.390;2022-11-11T12:56:25;99230.59;;;13.07;100.00
12759;BME280;20944;47.048;15.390;2022-11-11T12:58:59;99230.72;;;12.98;100.00
12759;BME280;20944;47.048;15.390;2022-11-11T13:01:42;99228.22;;;12.85;100.00
12759;BME280;20944;47.048;15.390;2022-11-11T13:04:32;99229.97;;;12.85;100.00
12759;BME280;20944;47.048;15.390;2022-11-11T13:07:22;99228.34;;;12.73;100.00
12759;BME280;20944;47.048;15.390;2022-11-11T13:10:12;99230.00;;;12.83;100.00
12759;BME280;20944;47.048;15.390;2022-11-11T13:12:47;99230.00;;;12.83;100.00
12759;BME280;20944;47.048;15.390;2022-11-11T13:15:22;99234.44;;;12.78;100.00
12759;BME280;20944;47.048;15.390;2022-11-11T13:17:51;99225.63;;;12.82;100.00
12759;BME280;20944;47.048;15.390;2022-11-11T13:20:34;99226.22;;;13.06;100.00
12759;BME280;20944;47.048;15.390;2022-11-11T13:23:09;99169.50;;;13.49;100.00